.
WxDataArchive / Data Records for 2009-09-13
2009-09-12 September 2009 2009-09-14

Data Records for Sunday, 13 September 2009

Time	Temp	Chill	HIndex	Humid	Dewpt	 Wind 	HiWind	WindDir	Rain 	Barom 
-----	----	-----	------	-----	-----	------	------	-------	-----	----- 
00:00	58.3	58.3	58.3	85	53.8	0	0	---	0.00	30.112 
00:05	58.1	58.1	58.1	85	53.6	0	0	---	0.00	30.112 
00:10	58.0	58.0	58.0	85	53.5	0	0	---	0.00	30.112 
00:15	57.8	57.8	57.8	86	53.6	0	0	---	0.00	30.111 
00:20	57.6	57.6	57.6	86	53.4	0	0	---	0.00	30.111 
00:25	57.5	57.5	57.5	86	53.3	0	0	---	0.00	30.111 
00:30	57.3	57.3	57.3	87	53.5	0	0	---	0.00	30.108 
00:35	57.0	57.0	57.0	87	53.2	0	0	---	0.00	30.108 
00:40	56.9	56.9	56.9	88	53.4	0	0	---	0.00	30.108 
00:45	56.7	56.7	56.7	88	53.2	0	0	---	0.00	30.107 
00:50	56.6	56.6	56.6	88	53.1	0	0	---	0.00	30.107 
00:55	56.5	56.5	56.5	88	53.0	0	0	---	0.00	30.107 
01:00	56.3	56.3	56.3	89	53.1	0	0	---	0.00	30.112 
01:05	56.2	56.2	56.2	89	53.0	0	0	---	0.00	30.112 
01:10	56.0	56.0	56.0	90	53.1	0	0	---	0.00	30.112 
01:15	56.0	56.0	56.0	90	53.1	0	0	---	0.00	30.110 
01:20	55.9	55.9	55.9	90	53.0	0	0	---	0.00	30.110 
01:25	55.7	55.7	55.7	91	53.1	0	0	---	0.00	30.110 
01:30	55.6	55.6	55.6	91	53.0	0	0	---	0.00	30.112 
01:35	55.4	55.4	55.4	91	52.8	0	0	---	0.00	30.112 
01:40	55.3	55.3	55.3	92	53.0	0	0	---	0.00	30.112 
01:45	55.1	55.1	55.1	92	52.8	0	0	---	0.00	30.112 
01:50	55.0	55.0	55.0	92	52.7	0	0	---	0.00	30.112 
01:55	54.8	54.8	54.8	92	52.5	0	0	---	0.00	30.112 
02:00	54.8	54.8	54.8	92	52.5	0	0	---	0.00	30.112 
02:05	54.7	54.7	54.7	92	52.4	0	0	---	0.00	30.112 
02:10	54.5	54.5	54.5	92	52.2	0	0	---	0.00	30.112 
02:15	54.5	54.5	54.5	93	52.5	0	0	---	0.00	30.112 
02:20	54.4	54.4	54.4	93	52.4	0	0	---	0.00	30.112 
02:25	54.2	54.2	54.2	93	52.2	0	0	---	0.00	30.112 
02:30	54.1	54.1	54.1	93	52.1	0	0	---	0.00	30.112 
02:35	53.9	53.9	53.9	93	51.9	0	0	---	0.00	30.112 
02:40	53.6	53.6	53.6	93	51.6	0	0	---	0.00	30.112 
02:45	53.6	53.6	53.6	93	51.6	0	0	---	0.00	30.111 
02:50	53.5	53.5	53.5	93	51.5	0	0	---	0.00	30.111 
02:55	53.3	53.3	53.3	93	51.3	0	0	---	0.00	30.111 
03:00	53.2	53.2	53.2	93	51.2	0	0	---	0.00	30.115 
03:05	53.1	53.1	53.1	93	51.1	0	0	---	0.00	30.115 
03:10	52.9	52.9	52.9	94	51.2	0	0	---	0.00	30.115 
03:15	52.9	52.9	52.9	94	51.2	0	0	---	0.00	30.116 
03:20	52.8	52.8	52.8	94	51.1	0	0	---	0.00	30.116 
03:25	52.6	52.6	52.6	94	50.9	0	0	---	0.00	30.116 
03:30	52.5	52.5	52.5	94	50.8	0	0	---	0.00	30.119 
03:35	52.5	52.5	52.5	94	50.8	0	0	---	0.00	30.119 
03:40	52.3	52.3	52.3	94	50.6	0	0	---	0.00	30.119 
03:45	52.3	52.3	52.3	94	50.6	0	0	---	0.00	30.121 
03:50	52.2	52.2	52.2	94	50.5	0	0	---	0.00	30.121 
03:55	52.2	52.2	52.2	94	50.5	0	0	---	0.00	30.121 
04:00	52.0	52.0	52.0	94	50.3	0	0	---	0.00	30.120 
04:05	51.9	51.9	51.9	94	50.2	0	0	---	0.00	30.120 
04:10	51.9	51.9	51.9	94	50.2	0	0	---	0.00	30.120 
04:15	51.7	51.7	51.7	94	50.0	0	0	---	0.00	30.122 
04:20	51.7	51.7	51.7	95	50.3	0	0	---	0.00	30.122 
04:25	51.7	51.7	51.7	95	50.3	0	0	---	0.00	30.122 
04:30	51.6	51.6	51.6	95	50.2	0	0	---	0.00	30.123 
04:35	51.6	51.6	51.6	95	50.2	0	0	---	0.00	30.123 
04:40	51.4	51.4	51.4	95	50.0	0	0	---	0.00	30.123 
04:45	51.4	51.4	51.4	95	50.0	0	0	---	0.00	30.124 
04:50	51.3	51.3	51.3	95	49.9	0	0	---	0.00	30.124 
04:55	51.1	51.1	51.1	95	49.7	0	0	---	0.00	30.124 
05:00	51.0	51.0	51.0	95	49.6	0	0	---	0.00	30.127 
05:05	51.0	51.0	51.0	95	49.6	0	0	---	0.00	30.127 
05:10	50.8	50.8	50.8	95	49.4	0	0	---	0.00	30.127 
05:15	50.8	50.8	50.8	95	49.4	0	0	---	0.00	30.127 
05:20	50.8	50.8	50.8	95	49.4	0	0	---	0.00	30.127 
05:25	50.7	50.7	50.7	95	49.3	0	0	---	0.00	30.127 
05:30	50.7	50.7	50.7	95	49.3	0	0	---	0.00	30.126 
05:35	50.7	50.7	50.7	95	49.3	0	0	---	0.00	30.126 
05:40	50.7	50.7	50.7	95	49.3	0	0	---	0.00	30.126 
05:45	50.5	50.5	50.5	95	49.1	0	0	---	0.00	30.126 
05:50	50.5	50.5	50.5	95	49.1	0	0	---	0.00	30.126 
05:55	50.5	50.5	50.5	95	49.1	0	0	---	0.00	30.126 
06:00	50.4	50.4	50.4	95	49.0	0	0	---	0.00	30.127 
06:05	50.4	50.4	50.4	95	49.0	0	0	---	0.00	30.127 
06:10	50.2	50.2	50.2	95	48.8	0	0	---	0.00	30.127 
06:15	50.2	50.2	50.2	95	48.8	0	0	---	0.00	30.129 
06:20	50.2	50.2	50.2	95	48.8	0	0	---	0.00	30.129 
06:25	50.1	50.1	50.1	95	48.7	0	0	---	0.00	30.129 
06:30	50.1	50.1	50.1	95	48.7	0	0	---	0.00	30.128 
06:35	49.9	49.9	49.9	95	48.5	0	0	---	0.00	30.128 
06:40	49.8	49.8	49.8	95	48.4	0	0	---	0.00	30.128 
06:45	49.6	49.6	49.6	95	48.2	0	0	---	0.00	30.128 
06:50	49.5	49.5	49.5	95	48.1	0	0	---	0.00	30.128 
06:55	49.5	49.5	49.5	95	48.1	0	0	---	0.00	30.128 
07:00	49.4	49.4	49.4	96	48.3	0	0	---	0.00	30.132 
07:05	49.2	49.2	49.2	95	47.8	0	0	---	0.00	30.132 
07:10	49.2	49.2	49.2	95	47.8	0	0	---	0.00	30.132 
07:15	49.1	49.1	49.1	96	48.0	0	0	---	0.00	30.141 
07:20	49.1	49.1	49.1	96	48.0	0	0	---	0.00	30.141 
07:25	48.9	48.9	48.9	96	47.8	0	0	---	0.00	30.141 
07:30	48.9	48.9	48.9	96	47.8	0	0	---	0.00	30.143 
07:35	48.9	48.9	48.9	96	47.8	0	0	---	0.00	30.143 
07:40	48.8	48.8	48.8	96	47.7	0	0	---	0.00	30.143 
07:45	48.9	48.9	48.9	96	47.8	0	0	---	0.00	30.146 
07:50	48.9	48.9	48.9	96	47.8	0	0	---	0.00	30.146 
07:55	48.9	48.9	48.9	96	47.8	0	0	---	0.00	30.146 
08:00	49.2	49.2	49.2	96	48.1	0	0	---	0.00	30.149 
08:05	49.4	49.4	49.4	96	48.3	0	0	---	0.00	30.149 
08:10	49.8	49.8	49.8	96	48.7	0	0	---	0.00	30.149 
08:15	50.1	50.1	50.1	96	49.0	0	0	---	0.00	30.158 
08:20	50.5	50.5	50.5	96	49.4	0	0	---	0.00	30.158 
08:25	51.1	51.1	51.1	96	50.0	0	0	---	0.00	30.158 
08:30	51.7	51.7	51.7	96	50.6	0	0	---	0.00	30.159 
08:35	52.3	52.3	52.3	96	51.2	0	0	---	0.00	30.159 
08:40	53.1	53.1	53.1	96	52.0	0	0	---	0.00	30.159 
08:45	53.6	53.6	53.6	97	52.8	0	0	---	0.00	30.155 
08:50	54.2	54.2	54.2	97	53.4	0	0	---	0.00	30.155 
08:55	54.7	54.7	54.7	97	53.9	0	0	---	0.00	30.155 
09:00	55.1	55.1	55.1	97	54.3	0	0	---	0.00	30.154 
09:05	55.6	55.6	55.6	97	54.8	0	0	---	0.00	30.154 
09:10	56.0	56.0	56.0	96	54.9	0	1	90	0.00	30.154 
09:15	56.3	56.3	56.3	96	55.2	0	1	90	0.00	30.161 
09:20	56.6	56.6	56.6	96	55.5	0	0	---	0.00	30.161 
09:25	56.9	56.9	56.9	96	55.8	0	0	---	0.00	30.161 
09:30	57.5	57.5	57.5	95	56.1	0	0	---	0.00	30.163 
09:35	58.1	58.1	58.1	94	56.4	0	0	---	0.00	30.163 
09:40	58.7	58.7	58.7	94	57.0	0	0	---	0.00	30.163 
09:45	59.3	59.3	59.3	93	57.3	0	0	---	0.00	30.163 
09:50	59.8	59.8	59.8	91	57.2	0	0	---	0.00	30.163 
09:55	60.2	60.2	60.2	89	56.9	0	0	---	0.00	30.163 
10:00	61.2	61.2	61.2	87	57.3	0	1	90	0.00	30.159 
10:05	62.3	62.3	62.3	86	58.1	0	0	---	0.00	30.159 
10:10	63.2	63.2	63.2	84	58.3	0	2	90	0.00	30.159 
10:15	64.2	64.2	64.2	77	56.8	0	2	90	0.00	30.160 
10:20	65.0	65.0	65.0	71	55.4	0	1	90	0.00	30.160 
10:25	66.1	66.1	66.1	68	55.2	0	1	90	0.00	30.160 
10:30	67.3	67.3	67.3	65	55.1	1	3	90	0.00	30.158 
10:35	67.9	67.9	67.9	67	56.5	1	2	90	0.00	30.158 
10:40	68.8	68.8	68.8	67	57.4	0	1	90	0.00	30.158 
10:45	69.6	69.6	69.6	61	55.5	0	2	90	0.00	30.158 
10:50	69.9	69.9	69.9	60	55.4	1	2	90	0.00	30.158 
10:55	70.1	70.1	70.1	60	55.6	1	3	90	0.00	30.158 
11:00	70.3	70.3	70.3	62	56.7	1	2	90	0.00	30.157 
11:05	70.6	70.6	70.6	60	56.0	0	0	---	0.00	30.157 
11:10	71.1	71.1	71.1	54	53.6	0	2	90	0.00	30.157 
11:15	71.8	71.8	71.8	59	56.7	0	1	90	0.00	30.158 
11:20	72.0	72.0	72.0	56	55.4	0	1	90	0.00	30.158 
11:25	72.3	72.3	72.3	55	55.2	1	4	90	0.00	30.158 
11:30	72.5	72.5	72.5	55	55.4	0	1	90	0.00	30.164 
11:35	72.5	72.5	72.5	52	53.9	0	1	90	0.00	30.164 
11:40	72.7	72.7	72.7	53	54.6	0	3	90	0.00	30.164 
11:45	72.8	72.8	72.8	52	54.1	0	2	112	0.00	30.162 
11:50	73.2	73.2	73.2	54	55.5	1	3	112	0.00	30.162 
11:55	73.3	73.3	73.3	52	54.6	0	3	112	0.00	30.162 
12:00	73.3	73.3	73.3	53	55.1	1	4	112	0.00	30.161 
12:05	73.7	73.7	73.7	51	54.4	1	5	90	0.00	30.161 
12:10	73.9	73.9	73.9	47	52.4	1	3	112	0.00	30.161 
12:15	74.2	74.2	74.2	50	54.3	0	3	112	0.00	30.158 
12:20	74.4	74.4	74.4	54	56.7	1	5	112	0.00	30.158 
12:25	74.0	74.0	74.0	50	54.2	0	1	112	0.00	30.158 
12:30	74.2	74.2	74.2	54	56.5	0	3	112	0.00	30.153 
12:35	74.6	74.6	74.6	52	55.8	0	4	112	0.00	30.153 
12:40	74.7	74.7	74.7	50	54.8	0	3	135	0.00	30.153 
12:45	74.7	74.7	74.7	51	55.4	2	5	112	0.00	30.152 
12:50	74.9	74.9	74.9	51	55.5	1	3	135	0.00	30.152 
12:55	74.7	74.7	74.7	50	54.8	2	6	90	0.00	30.152 
13:00	74.6	74.6	74.6	53	56.3	1	6	90	0.00	30.148 
13:05	74.7	74.7	74.7	52	55.9	1	4	112	0.00	30.148 
13:10	74.9	74.9	74.9	53	56.6	1	3	90	0.00	30.148 
13:15	75.4	75.4	77.8	53	57.1	0	4	90	0.00	30.148 
13:20	75.4	75.4	77.8	51	56.0	1	4	112	0.00	30.148 
13:25	75.6	75.6	77.9	54	57.8	0	1	68	0.00	30.148 
13:30	75.6	75.6	77.9	51	56.2	1	7	112	0.00	30.144 
13:35	75.6	75.6	77.9	53	57.2	1	4	135	0.00	30.144 
13:40	75.8	75.8	78.0	51	56.4	0	2	112	0.00	30.144 
13:45	76.0	76.0	78.1	50	56.0	1	4	112	0.00	30.141 
13:50	76.0	76.0	78.1	49	55.4	2	7	112	0.00	30.141 
13:55	75.8	75.8	78.0	52	56.9	2	5	112	0.00	30.141 
14:00	75.8	75.8	78.0	50	55.8	0	3	112	0.00	30.137 
14:05	76.0	76.0	78.1	50	56.0	0	2	112	0.00	30.137 
14:10	76.3	76.3	78.2	50	56.3	1	4	112	0.00	30.137 
14:15	76.3	76.3	78.2	49	55.7	1	4	112	0.00	30.133 
14:20	76.3	76.3	78.2	48	55.1	1	5	112	0.00	30.133 
14:25	76.0	76.0	78.1	51	56.5	1	5	90	0.00	30.133 
14:30	76.0	76.0	78.0	48	54.9	2	6	90	0.00	30.128 
14:35	75.8	75.8	78.0	50	55.8	1	3	90	0.00	30.128 
14:40	76.1	76.1	78.1	51	56.6	0	2	90	0.00	30.128 
14:45	76.3	76.3	78.2	49	55.7	1	4	90	0.00	30.124 
14:50	76.7	76.7	78.4	49	56.1	1	3	90	0.00	30.124 
14:55	76.7	76.7	78.5	54	58.8	2	4	90	0.00	30.124 
15:00	76.8	76.8	78.5	51	57.3	0	3	112	0.00	30.121 
15:05	76.8	76.8	78.4	47	55.0	1	3	112	0.00	30.121 
15:10	76.7	76.7	78.4	48	55.5	2	5	112	0.00	30.121 
15:15	76.7	76.7	78.4	50	56.6	0	2	112	0.00	30.118 
15:20	76.7	76.7	78.4	48	55.5	2	4	112	0.00	30.118 
15:25	76.5	76.5	78.3	51	57.0	2	5	112	0.00	30.118 
15:30	76.5	76.5	78.3	47	54.7	2	4	112	0.00	30.111 
15:35	76.7	76.7	78.5	53	58.3	0	3	90	0.00	30.111 
15:40	77.0	77.0	78.6	50	56.9	0	2	90	0.00	30.111 
15:45	77.0	77.0	78.6	50	56.9	1	3	90	0.00	30.107 
15:50	77.2	77.2	78.7	49	56.5	1	3	90	0.00	30.107 
15:55	77.4	77.4	78.8	48	56.1	1	3	112	0.00	30.107 
16:00	77.4	77.4	78.9	51	57.8	0	2	112	0.00	30.103 
16:05	77.4	77.4	78.8	48	56.1	0	2	112	0.00	30.103 
16:10	77.6	77.6	78.9	48	56.3	0	2	112	0.00	30.103 
16:15	77.4	77.4	78.7	47	55.6	1	3	112	0.00	30.093 
16:20	77.2	77.2	78.7	48	56.0	1	2	158	0.00	30.093 
16:25	77.0	77.0	78.5	46	54.6	0	1	158	0.00	30.093 
16:30	77.0	77.0	78.6	50	56.9	0	1	158	0.00	30.091 
16:35	76.8	76.8	78.4	48	55.6	0	1	158	0.00	30.091 
16:40	76.8	76.8	78.5	49	56.2	0	1	158	0.00	30.091 
16:45	76.8	76.8	78.5	49	56.2	0	1	158	0.00	30.091 
16:50	76.8	76.8	78.4	48	55.6	0	2	45	0.00	30.091 
16:55	76.8	76.8	78.5	50	56.7	0	2	45	0.00	30.091 
17:00	76.8	76.8	78.5	50	56.7	0	1	45	0.00	30.090 
17:05	76.8	76.8	78.5	50	56.7	0	2	45	0.00	30.090 
17:10	76.7	76.7	78.4	50	56.6	1	3	112	0.00	30.090 
17:15	76.5	76.5	78.3	48	55.3	0	1	112	0.00	30.092 
17:20	76.5	76.5	78.3	48	55.3	0	1	112	0.00	30.092 
17:25	76.5	76.5	78.3	49	55.9	0	0	---	0.00	30.092 
17:30	76.5	76.5	78.3	50	56.5	0	1	112	0.00	30.088 
17:35	76.5	76.5	78.3	50	56.5	0	1	112	0.00	30.088 
17:40	76.5	76.5	78.3	50	56.5	0	1	112	0.00	30.088 
17:45	76.3	76.3	78.2	50	56.3	0	1	112	0.00	30.084 
17:50	76.3	76.3	78.2	51	56.8	0	1	112	0.00	30.084 
17:55	76.3	76.3	78.2	52	57.4	0	1	112	0.00	30.084 
18:00	76.3	76.3	78.2	53	57.9	0	0	---	0.00	30.084 
18:05	76.3	76.3	78.2	53	57.9	0	1	112	0.00	30.084 
18:10	76.1	76.1	78.1	54	58.2	0	0	---	0.00	30.084 
18:15	76.0	76.0	78.1	52	57.1	0	1	112	0.00	30.086 
18:20	75.8	75.8	78.0	52	56.9	0	0	---	0.00	30.086 
18:25	75.6	75.6	77.9	54	57.8	0	1	112	0.00	30.086 
18:30	75.6	75.6	77.8	56	58.8	0	1	112	0.00	30.084 
18:35	75.4	75.4	77.7	56	58.6	0	0	---	0.00	30.084 
18:40	75.3	75.3	77.7	55	58.0	0	1	112	0.00	30.084 
18:45	75.1	75.1	77.5	57	58.8	0	1	112	0.00	30.079 
18:50	74.9	74.9	74.9	56	58.1	0	0	---	0.00	30.079 
18:55	74.7	74.7	74.7	58	58.9	0	1	112	0.00	30.079 
19:00	74.6	74.6	74.6	57	58.3	0	1	112	0.00	30.078 
19:05	74.4	74.4	74.4	58	58.6	0	0	---	0.00	30.078 
19:10	74.2	74.2	74.2	59	58.9	0	0	---	0.00	30.078 
19:15	73.9	73.9	73.9	59	58.7	0	0	---	0.00	30.078 
19:20	73.7	73.7	73.7	60	58.9	0	0	---	0.00	30.078 
19:25	73.3	73.3	73.3	61	59.0	0	0	---	0.00	30.078 
19:30	73.2	73.2	73.2	61	58.9	0	0	---	0.00	30.075 
19:35	72.8	72.8	72.8	62	59.0	0	0	---	0.00	30.075 
19:40	72.7	72.7	72.7	63	59.4	0	0	---	0.00	30.075 
19:45	72.3	72.3	72.3	64	59.4	0	0	---	0.00	30.080 
19:50	71.8	71.8	71.8	65	59.4	0	0	---	0.00	30.080 
19:55	71.3	71.3	71.3	66	59.3	0	0	---	0.00	30.080 
20:00	70.9	70.9	70.9	67	59.4	0	0	---	0.00	30.080 
20:05	70.4	70.4	70.4	69	59.7	0	0	---	0.00	30.080 
20:10	69.9	69.9	69.9	70	59.7	0	0	---	0.00	30.080 
20:15	69.4	69.4	69.4	72	60.0	0	0	---	0.00	30.075 
20:20	68.9	68.9	68.9	73	59.9	0	0	---	0.00	30.075 
20:25	68.6	68.6	68.6	74	60.0	0	0	---	0.00	30.075 
20:30	68.3	68.3	68.3	75	60.1	0	0	---	0.00	30.078 
20:35	67.9	67.9	67.9	76	60.0	0	0	---	0.00	30.078 
20:40	67.6	67.6	67.6	77	60.1	0	0	---	0.00	30.078 
20:45	67.1	67.1	67.1	78	60.0	0	0	---	0.00	30.081 
20:50	66.9	66.9	66.9	79	60.2	0	0	---	0.00	30.081 
20:55	66.6	66.6	66.6	80	60.2	0	0	---	0.00	30.081 
21:00	66.3	66.3	66.3	80	59.9	0	0	---	0.00	30.084 
21:05	66.1	66.1	66.1	81	60.1	0	0	---	0.00	30.084 
21:10	65.8	65.8	65.8	81	59.8	0	0	---	0.00	30.084 
21:15	65.6	65.6	65.6	82	59.9	0	0	---	0.00	30.079 
21:20	65.3	65.3	65.3	83	60.0	0	0	---	0.00	30.079 
21:25	65.2	65.2	65.2	83	59.9	0	0	---	0.00	30.079 
21:30	64.8	64.8	64.8	84	59.8	0	0	---	0.00	30.081 
21:35	64.7	64.7	64.7	84	59.7	0	0	---	0.00	30.081 
21:40	64.5	64.5	64.5	84	59.6	0	0	---	0.00	30.081 
21:45	64.3	64.3	64.3	85	59.7	0	0	---	0.00	30.084 
21:50	64.2	64.2	64.2	86	59.9	0	0	---	0.00	30.084 
21:55	64.0	64.0	64.0	86	59.7	0	0	---	0.00	30.084 
22:00	63.9	63.9	63.9	87	59.9	0	0	---	0.00	30.081 
22:05	63.7	63.7	63.7	87	59.8	0	0	---	0.00	30.081 
22:10	63.5	63.5	63.5	87	59.6	0	0	---	0.00	30.081 
22:15	63.5	63.5	63.5	88	59.9	0	0	---	0.00	30.072 
22:20	63.4	63.4	63.4	88	59.8	0	0	---	0.00	30.072 
22:25	63.2	63.2	63.2	88	59.6	0	0	---	0.00	30.072 
22:30	63.2	63.2	63.2	88	59.6	0	0	---	0.00	30.075 
22:35	63.1	63.1	63.1	88	59.5	0	0	---	0.00	30.075 
22:40	62.9	62.9	62.9	88	59.3	0	0	---	0.00	30.075 
22:45	62.7	62.7	62.7	89	59.4	0	0	---	0.00	30.077 
22:50	62.6	62.6	62.6	89	59.3	0	0	---	0.00	30.077 
22:55	62.4	62.4	62.4	89	59.1	0	0	---	0.00	30.077 
23:00	62.3	62.3	62.3	89	59.0	0	0	---	0.00	30.076 
23:05	62.1	62.1	62.1	89	58.8	0	0	---	0.00	30.076 
23:10	62.1	62.1	62.1	90	59.1	0	0	---	0.00	30.076 
23:15	62.0	62.0	62.0	90	59.0	0	0	---	0.00	30.077 
23:20	61.8	61.8	61.8	90	58.8	0	0	---	0.00	30.077 
23:25	61.6	61.6	61.6	90	58.6	0	0	---	0.00	30.077 
23:30	61.5	61.5	61.5	90	58.5	0	0	---	0.00	30.077 
23:35	61.3	61.3	61.3	91	58.6	0	0	---	0.00	30.077 
23:40	61.3	61.3	61.3	91	58.6	0	0	---	0.00	30.077 
23:45	61.2	61.2	61.2	91	58.5	0	0	---	0.00	30.077 
23:50	61.2	61.2	61.2	91	58.5	0	0	---	0.00	30.077 
23:55	61.0	61.0	61.0	92	58.7	0	0	---	0.00	30.077 

CoCoRaHS
IN-AL-39
A2 Web Hosting
Creative Commons License
GoDaddy
search engine by freefind advanced

loaded 2018-11-17 14:22:46 • last modified 2010-11-18 10:43:29
Privacy PolicyDisclaimer
• wx.awcolley.com is powered by PmWiki v.2002016 •
• all content (unless otherwise noted) © 2018 A W Colley